sensor_id;sensor_type;location;lat;lon;timestamp;pressure;altitude;pressure_sealevel;temperature;humidity
47556;BME280;33291;46.222;26.460;2024-01-06T00:01:38;96168.88;;;2.80;75.03
47556;BME280;33291;46.222;26.460;2024-01-06T00:04:04;96169.84;;;2.79;75.47
47556;BME280;33291;46.222;26.460;2024-01-06T00:06:29;96159.44;;;2.81;75.27
47556;BME280;33291;46.222;26.460;2024-01-06T00:08:55;96151.19;;;2.76;74.61
47556;BME280;33291;46.222;26.460;2024-01-06T00:11:21;96157.78;;;2.80;74.55
47556;BME280;33291;46.222;26.460;2024-01-06T00:13:47;96151.19;;;2.76;74.50
47556;BME280;33291;46.222;26.460;2024-01-06T00:16:16;96149.16;;;2.81;74.76
47556;BME280;33291;46.222;26.460;2024-01-06T00:18:42;96142.34;;;2.80;74.90
47556;BME280;33291;46.222;26.460;2024-01-06T00:21:08;96138.22;;;2.77;74.74
47556;BME280;33291;46.222;26.460;2024-01-06T00:23:34;96120.00;;;2.67;74.81
47556;BME280;33291;46.222;26.460;2024-01-06T00:26:00;96146.28;;;2.86;74.65
47556;BME280;33291;46.222;26.460;2024-01-06T00:28:25;96132.78;;;2.82;74.81
47556;BME280;33291;46.222;26.460;2024-01-06T00:30:52;96131.50;;;2.75;74.64
47556;BME280;33291;46.222;26.460;2024-01-06T00:33:18;96147.50;;;2.80;74.77
47556;BME280;33291;46.222;26.460;2024-01-06T00:35:44;96143.38;;;2.77;74.42
47556;BME280;33291;46.222;26.460;2024-01-06T00:38:10;96140.19;;;2.74;74.87
47556;BME280;33291;46.222;26.460;2024-01-06T00:40:35;96134.50;;;2.69;74.99
47556;BME280;33291;46.222;26.460;2024-01-06T00:43:01;96140.03;;;2.62;75.17
47556;BME280;33291;46.222;26.460;2024-01-06T00:45:26;96140.97;;;2.61;75.87
47556;BME280;33291;46.222;26.460;2024-01-06T00:47:52;96136.84;;;2.59;76.04
47556;BME280;33291;46.222;26.460;2024-01-06T00:50:18;96133.75;;;2.54;76.04
47556;BME280;33291;46.222;26.460;2024-01-06T00:52:46;96134.75;;;2.51;76.43
47556;BME280;33291;46.222;26.460;2024-01-06T00:55:12;96120.44;;;2.47;76.61
47556;BME280;33291;46.222;26.460;2024-01-06T00:57:38;96127.34;;;2.46;76.92
47556;BME280;33291;46.222;26.460;2024-01-06T01:00:05;96118.38;;;2.39;77.10
47556;BME280;33291;46.222;26.460;2024-01-06T01:02:31;96107.66;;;2.33;77.16
47556;BME280;33291;46.222;26.460;2024-01-06T01:04:56;96112.41;;;2.39;77.13
47556;BME280;33291;46.222;26.460;2024-01-06T01:07:23;96101.25;;;2.25;77.44
47556;BME280;33291;46.222;26.460;2024-01-06T01:09:49;96104.84;;;2.23;77.41
47556;BME280;33291;46.222;26.460;2024-01-06T01:12:14;96097.13;;;2.23;77.57
47556;BME280;33291;46.222;26.460;2024-01-06T01:14:40;96099.28;;;2.16;77.82
47556;BME280;33291;46.222;26.460;2024-01-06T01:17:05;96108.63;;;2.17;77.80
47556;BME280;33291;46.222;26.460;2024-01-06T01:19:31;96108.44;;;2.20;77.69
47556;BME280;33291;46.222;26.460;2024-01-06T01:21:56;96103.50;;;2.17;77.88
47556;BME280;33291;46.222;26.460;2024-01-06T01:24:22;96109.44;;;2.18;77.68
47556;BME280;33291;46.222;26.460;2024-01-06T01:26:49;96103.31;;;2.20;77.54
47556;BME280;33291;46.222;26.460;2024-01-06T01:29:15;96097.41;;;2.18;77.75
47556;BME280;33291;46.222;26.460;2024-01-06T01:31:41;96094.31;;;2.13;78.04
47556;BME280;33291;46.222;26.460;2024-01-06T01:34:07;96089.78;;;2.04;77.97
47556;BME280;33291;46.222;26.460;2024-01-06T01:36:33;96092.88;;;2.09;77.96
47556;BME280;33291;46.222;26.460;2024-01-06T01:38:59;96084.72;;;2.02;78.20
47556;BME280;33291;46.222;26.460;2024-01-06T01:41:24;96089.41;;;1.95;78.77
47556;BME280;33291;46.222;26.460;2024-01-06T01:43:50;96089.59;;;1.92;79.15
47556;BME280;33291;46.222;26.460;2024-01-06T01:46:25;96078.06;;;1.85;78.84
47556;BME280;33291;46.222;26.460;2024-01-06T01:48:54;96095.78;;;1.90;78.56
47556;BME280;33291;46.222;26.460;2024-01-06T01:51:21;96086.50;;;1.87;78.54
47556;BME280;33291;46.222;26.460;2024-01-06T01:53:47;96079.00;;;1.84;78.31
47556;BME280;33291;46.222;26.460;2024-01-06T01:56:12;96077.34;;;1.83;78.17
47556;BME280;33291;46.222;26.460;2024-01-06T01:58:38;96072.59;;;1.77;78.39
47556;BME280;33291;46.222;26.460;2024-01-06T02:01:04;96078.53;;;1.77;78.71
47556;BME280;33291;46.222;26.460;2024-01-06T02:03:30;96077.72;;;1.77;78.77
47556;BME280;33291;46.222;26.460;2024-01-06T02:05:56;96078.63;;;1.76;78.59
47556;BME280;33291;46.222;26.460;2024-01-06T02:08:22;96068.22;;;1.65;79.38
47556;BME280;33291;46.222;26.460;2024-01-06T02:10:48;96071.59;;;1.65;79.38
47556;BME280;33291;46.222;26.460;2024-01-06T02:13:14;96073.44;;;1.63;79.65
47556;BME280;33291;46.222;26.460;2024-01-06T02:15:40;96070.69;;;1.66;79.45
47556;BME280;33291;46.222;26.460;2024-01-06T02:18:06;96073.06;;;1.69;79.45
47556;BME280;33291;46.222;26.460;2024-01-06T02:20:31;96071.69;;;1.64;79.63
47556;BME280;33291;46.222;26.460;2024-01-06T02:22:57;96031.03;;;1.43;79.15
47556;BME280;33291;46.222;26.460;2024-01-06T02:25:24;96048.81;;;1.46;79.63
47556;BME280;33291;46.222;26.460;2024-01-06T02:27:50;96062.72;;;1.56;79.41
47556;BME280;33291;46.222;26.460;2024-01-06T02:30:16;96058.31;;;1.58;79.38
47556;BME280;33291;46.222;26.460;2024-01-06T02:32:41;96058.31;;;1.58;78.91
47556;BME280;33291;46.222;26.460;2024-01-06T02:35:07;96057.59;;;1.56;78.58
47556;BME280;33291;46.222;26.460;2024-01-06T02:37:33;96049.72;;;1.59;78.72
47556;BME280;33291;46.222;26.460;2024-01-06T02:39:58;96056.19;;;1.65;79.04
47556;BME280;33291;46.222;26.460;2024-01-06T02:42:24;96051.69;;;1.69;78.88
47556;BME280;33291;46.222;26.460;2024-01-06T02:44:50;96039.59;;;1.71;78.78
47556;BME280;33291;46.222;26.460;2024-01-06T02:47:16;96037.72;;;1.73;78.32
47556;BME280;33291;46.222;26.460;2024-01-06T02:49:42;96046.19;;;1.75;77.50
47556;BME280;33291;46.222;26.460;2024-01-06T02:52:08;96025.09;;;1.70;76.65
47556;BME280;33291;46.222;26.460;2024-01-06T02:54:33;96041.66;;;1.78;76.27
47556;BME280;33291;46.222;26.460;2024-01-06T02:56:59;96036.72;;;1.75;76.23
47556;BME280;33291;46.222;26.460;2024-01-06T02:59:24;96026.44;;;1.75;76.34
47556;BME280;33291;46.222;26.460;2024-01-06T03:01:50;96030.03;;;1.73;76.06
47556;BME280;33291;46.222;26.460;2024-01-06T03:04:16;96032.78;;;1.70;76.65
47556;BME280;33291;46.222;26.460;2024-01-06T03:06:42;95997.81;;;1.54;76.81
47556;BME280;33291;46.222;26.460;2024-01-06T03:09:08;96015.09;;;1.65;76.70
47556;BME280;33291;46.222;26.460;2024-01-06T03:11:34;96012.31;;;1.55;77.59
47556;BME280;33291;46.222;26.460;2024-01-06T03:13:59;96021.09;;;1.66;77.61
47556;BME280;33291;46.222;26.460;2024-01-06T03:16:25;96007.50;;;1.64;77.42
47556;BME280;33291;46.222;26.460;2024-01-06T03:18:51;96013.56;;;1.63;77.66
47556;BME280;33291;46.222;26.460;2024-01-06T03:21:17;96007.50;;;1.64;77.83
47556;BME280;33291;46.222;26.460;2024-01-06T03:23:43;96009.34;;;1.62;78.23
47556;BME280;33291;46.222;26.460;2024-01-06T03:26:09;96009.97;;;1.65;77.72
47556;BME280;33291;46.222;26.460;2024-01-06T03:28:34;96008.97;;;1.68;76.94
47556;BME280;33291;46.222;26.460;2024-01-06T03:31:00;96006.91;;;1.73;76.76
47556;BME280;33291;46.222;26.460;2024-01-06T03:33:25;96009.38;;;1.74;76.57
47556;BME280;33291;46.222;26.460;2024-01-06T03:35:51;96007.84;;;1.72;76.93
47556;BME280;33291;46.222;26.460;2024-01-06T03:38:17;96009.38;;;1.74;76.97
47556;BME280;33291;46.222;26.460;2024-01-06T03:40:42;96005.81;;;1.77;76.89
47556;BME280;33291;46.222;26.460;2024-01-06T03:43:08;96009.19;;;1.77;76.54
47556;BME280;33291;46.222;26.460;2024-01-06T03:45:34;96004.06;;;1.77;76.60
47556;BME280;33291;46.222;26.460;2024-01-06T03:47:59;95994.81;;;1.75;76.31
47556;BME280;33291;46.222;26.460;2024-01-06T03:50:25;95990.50;;;1.75;76.32
47556;BME280;33291;46.222;26.460;2024-01-06T03:52:51;95983.00;;;1.72;76.36
47556;BME280;33291;46.222;26.460;2024-01-06T03:55:16;95988.22;;;1.71;77.32
47556;BME280;33291;46.222;26.460;2024-01-06T03:57:42;95991.31;;;1.76;77.24
47556;BME280;33291;46.222;26.460;2024-01-06T04:00:08;95994.63;;;1.78;77.33
47556;BME280;33291;46.222;26.460;2024-01-06T04:02:34;95986.56;;;1.70;78.38
47556;BME280;33291;46.222;26.460;2024-01-06T04:05:00;95987.22;;;1.73;78.58
47556;BME280;33291;46.222;26.460;2024-01-06T04:07:25;95986.66;;;1.68;78.91
47556;BME280;33291;46.222;26.460;2024-01-06T04:09:51;95975.44;;;1.56;78.97
47556;BME280;33291;46.222;26.460;2024-01-06T04:12:17;95989.78;;;1.73;79.37
47556;BME280;33291;46.222;26.460;2024-01-06T04:14:43;95989.69;;;1.75;79.28
47556;BME280;33291;46.222;26.460;2024-01-06T04:17:08;95985.28;;;1.77;79.52
47556;BME280;33291;46.222;26.460;2024-01-06T04:19:34;95978.56;;;1.74;79.71
47556;BME280;33291;46.222;26.460;2024-01-06T04:22:00;95966.41;;;1.64;80.09
47556;BME280;33291;46.222;26.460;2024-01-06T04:24:26;95959.84;;;1.59;80.15
47556;BME280;33291;46.222;26.460;2024-01-06T04:26:51;95979.63;;;1.72;80.27
47556;BME280;33291;46.222;26.460;2024-01-06T04:29:17;95968.50;;;1.71;80.42
47556;BME280;33291;46.222;26.460;2024-01-06T04:31:42;95983.63;;;1.76;80.29
47556;BME280;33291;46.222;26.460;2024-01-06T04:34:08;95979.84;;;1.82;79.97
47556;BME280;33291;46.222;26.460;2024-01-06T04:36:34;95976.38;;;1.83;80.08
47556;BME280;33291;46.222;26.460;2024-01-06T04:38:59;95965.44;;;1.79;79.96
47556;BME280;33291;46.222;26.460;2024-01-06T04:41:25;95970.56;;;1.79;79.90
47556;BME280;33291;46.222;26.460;2024-01-06T04:43:51;95985.59;;;1.85;79.88
47556;BME280;33291;46.222;26.460;2024-01-06T04:46:16;95982.00;;;1.88;79.80
47556;BME280;33291;46.222;26.460;2024-01-06T04:48:42;95968.47;;;1.86;79.37
47556;BME280;33291;46.222;26.460;2024-01-06T04:51:09;95970.19;;;1.85;80.29
47556;BME280;33291;46.222;26.460;2024-01-06T04:53:38;95949.72;;;1.71;80.73
47556;BME280;33291;46.222;26.460;2024-01-06T04:56:04;95966.28;;;1.80;80.58
47556;BME280;33291;46.222;26.460;2024-01-06T04:58:29;95963.22;;;1.87;79.89
47556;BME280;33291;46.222;26.460;2024-01-06T05:00:55;95958.59;;;1.92;79.91
47556;BME280;33291;46.222;26.460;2024-01-06T05:03:21;95958.22;;;1.99;79.59
47556;BME280;33291;46.222;26.460;2024-01-06T05:05:47;95958.09;;;2.00;79.77
47556;BME280;33291;46.222;26.460;2024-01-06T05:08:12;95945.38;;;1.99;80.11
47556;BME280;33291;46.222;26.460;2024-01-06T05:10:38;95955.44;;;2.02;79.88
47556;BME280;33291;46.222;26.460;2024-01-06T05:13:03;95943.84;;;1.96;80.09
47556;BME280;33291;46.222;26.460;2024-01-06T05:15:29;95961.03;;;2.08;79.79
47556;BME280;33291;46.222;26.460;2024-01-06T05:17:55;95956.09;;;2.05;80.17
47556;BME280;33291;46.222;26.460;2024-01-06T05:20:20;95957.81;;;2.05;80.24
47556;BME280;33291;46.222;26.460;2024-01-06T05:22:46;95967.69;;;2.11;80.18
47556;BME280;33291;46.222;26.460;2024-01-06T05:25:12;95967.78;;;2.09;80.39
47556;BME280;33291;46.222;26.460;2024-01-06T05:27:37;95963.69;;;2.07;80.43
47556;BME280;33291;46.222;26.460;2024-01-06T05:30:03;95949.28;;;2.04;80.64
47556;BME280;33291;46.222;26.460;2024-01-06T05:32:29;95958.44;;;2.08;81.01
47556;BME280;33291;46.222;26.460;2024-01-06T05:34:57;95958.56;;;2.07;81.03
47556;BME280;33291;46.222;26.460;2024-01-06T05:37:23;95961.03;;;2.08;81.21
47556;BME280;33291;46.222;26.460;2024-01-06T05:39:48;95959.66;;;2.03;81.29
47556;BME280;33291;46.222;26.460;2024-01-06T05:42:14;95963.88;;;2.04;81.30
47556;BME280;33291;46.222;26.460;2024-01-06T05:44:43;95960.19;;;2.08;80.84
47556;BME280;33291;46.222;26.460;2024-01-06T05:47:08;95960.06;;;2.09;80.89
47556;BME280;33291;46.222;26.460;2024-01-06T05:49:34;95957.41;;;2.11;80.83
47556;BME280;33291;46.222;26.460;2024-01-06T05:52:00;95959.88;;;2.12;80.33
47556;BME280;33291;46.222;26.460;2024-01-06T05:54:25;95953.63;;;2.17;80.14
47556;BME280;33291;46.222;26.460;2024-01-06T05:56:51;95957.75;;;2.19;79.86
47556;BME280;33291;46.222;26.460;2024-01-06T05:59:17;95961.88;;;2.22;79.82
47556;BME280;33291;46.222;26.460;2024-01-06T06:01:42;95960.00;;;2.24;79.19
47556;BME280;33291;46.222;26.460;2024-01-06T06:04:10;95970.28;;;2.24;79.64
47556;BME280;33291;46.222;26.460;2024-01-06T06:06:35;95949.13;;;2.20;79.93
47556;BME280;33291;46.222;26.460;2024-01-06T06:09:01;95969.69;;;2.20;80.06
47556;BME280;33291;46.222;26.460;2024-01-06T06:11:32;95959.41;;;2.20;79.98
47556;BME280;33291;46.222;26.460;2024-01-06T06:13:57;95971.09;;;2.24;79.83
47556;BME280;33291;46.222;26.460;2024-01-06T06:16:23;95971.94;;;2.25;79.96
47556;BME280;33291;46.222;26.460;2024-01-06T06:18:49;95959.50;;;2.19;80.58
47556;BME280;33291;46.222;26.460;2024-01-06T06:21:14;95977.00;;;2.26;80.46
47556;BME280;33291;46.222;26.460;2024-01-06T06:23:40;95965.06;;;2.25;80.07
47556;BME280;33291;46.222;26.460;2024-01-06T06:26:06;95958.34;;;2.23;80.65
47556;BME280;33291;46.222;26.460;2024-01-06T06:28:33;95953.84;;;2.26;80.58
47556;BME280;33291;46.222;26.460;2024-01-06T06:31:01;95941.91;;;2.25;80.40
47556;BME280;33291;46.222;26.460;2024-01-06T06:33:27;95949.22;;;2.31;79.96
47556;BME280;33291;46.222;26.460;2024-01-06T06:35:52;95958.78;;;2.42;79.77
47556;BME280;33291;46.222;26.460;2024-01-06T06:38:18;95961.25;;;2.44;79.28
47556;BME280;33291;46.222;26.460;2024-01-06T06:40:44;95960.94;;;2.48;79.43
47556;BME280;33291;46.222;26.460;2024-01-06T06:43:09;95952.94;;;2.53;78.77
47556;BME280;33291;46.222;26.460;2024-01-06T06:45:35;95952.72;;;2.56;79.63
47556;BME280;33291;46.222;26.460;2024-01-06T06:48:01;95948.53;;;2.55;79.74
47556;BME280;33291;46.222;26.460;2024-01-06T06:50:26;95958.59;;;2.58;79.44
47556;BME280;33291;46.222;26.460;2024-01-06T06:52:52;95961.06;;;2.60;79.46
47556;BME280;33291;46.222;26.460;2024-01-06T06:55:18;95970.09;;;2.65;79.73
47556;BME280;33291;46.222;26.460;2024-01-06T06:57:44;95964.03;;;2.66;79.76
47556;BME280;33291;46.222;26.460;2024-01-06T07:00:10;95962.28;;;2.67;79.35
47556;BME280;33291;46.222;26.460;2024-01-06T07:02:35;95962.28;;;2.67;78.99
47556;BME280;33291;46.222;26.460;2024-01-06T07:05:01;95963.63;;;2.73;78.78
47556;BME280;33291;46.222;26.460;2024-01-06T07:07:27;95944.19;;;2.69;79.46
47556;BME280;33291;46.222;26.460;2024-01-06T07:09:52;95944.19;;;2.69;79.31
47556;BME280;33291;46.222;26.460;2024-01-06T07:12:18;95932.28;;;2.67;79.45
47556;BME280;33291;46.222;26.460;2024-01-06T07:14:44;95940.91;;;2.66;79.08
47556;BME280;33291;46.222;26.460;2024-01-06T07:17:09;95939.03;;;2.69;78.63
47556;BME280;33291;46.222;26.460;2024-01-06T07:19:35;95937.91;;;2.73;78.46
47556;BME280;33291;46.222;26.460;2024-01-06T07:22:01;95941.19;;;2.75;78.21
47556;BME280;33291;46.222;26.460;2024-01-06T07:24:27;95943.16;;;2.84;77.51
47556;BME280;33291;46.222;26.460;2024-01-06T07:26:52;95939.44;;;2.88;76.81
47556;BME280;33291;46.222;26.460;2024-01-06T07:29:18;95933.16;;;2.92;76.66
47556;BME280;33291;46.222;26.460;2024-01-06T07:31:44;95935.53;;;2.95;76.49
47556;BME280;33291;46.222;26.460;2024-01-06T07:34:10;95932.72;;;2.98;76.68
47556;BME280;33291;46.222;26.460;2024-01-06T07:36:35;95925.00;;;2.98;76.71
47556;BME280;33291;46.222;26.460;2024-01-06T07:39:01;95935.91;;;3.02;76.73
47556;BME280;33291;46.222;26.460;2024-01-06T07:41:28;95937.34;;;3.06;76.07
47556;BME280;33291;46.222;26.460;2024-01-06T07:43:56;95932.78;;;3.10;76.65
47556;BME280;33291;46.222;26.460;2024-01-06T07:46:21;95936.09;;;3.12;76.47
47556;BME280;33291;46.222;26.460;2024-01-06T07:48:47;95934.03;;;3.17;76.24
47556;BME280;33291;46.222;26.460;2024-01-06T07:51:12;95937.72;;;3.26;75.31
47556;BME280;33291;46.222;26.460;2024-01-06T07:53:38;95925.66;;;3.26;74.95
47556;BME280;33291;46.222;26.460;2024-01-06T07:56:04;95933.16;;;3.29;75.20
47556;BME280;33291;46.222;26.460;2024-01-06T07:58:30;95907.47;;;3.16;75.85
47556;BME280;33291;46.222;26.460;2024-01-06T08:00:55;95922.66;;;3.32;75.86
47556;BME280;33291;46.222;26.460;2024-01-06T08:03:21;95929.00;;;3.40;74.93
47556;BME280;33291;46.222;26.460;2024-01-06T08:05:46;95931.47;;;3.41;74.92
47556;BME280;33291;46.222;26.460;2024-01-06T08:08:12;95926.97;;;3.45;75.20
47556;BME280;33291;46.222;26.460;2024-01-06T08:10:42;95925.91;;;3.47;75.01
47556;BME280;33291;46.222;26.460;2024-01-06T08:13:08;95919.72;;;3.50;74.37
47556;BME280;33291;46.222;26.460;2024-01-06T08:15:33;95906.34;;;3.45;75.20
47556;BME280;33291;46.222;26.460;2024-01-06T08:17:59;95922.78;;;3.55;75.08
47556;BME280;33291;46.222;26.460;2024-01-06T08:20:25;95923.97;;;3.62;74.99
47556;BME280;33291;46.222;26.460;2024-01-06T08:22:50;95926.13;;;3.68;74.96
47556;BME280;33291;46.222;26.460;2024-01-06T08:25:16;95924.16;;;3.72;73.50
47556;BME280;33291;46.222;26.460;2024-01-06T08:27:43;95908.78;;;3.70;74.10
47556;BME280;33291;46.222;26.460;2024-01-06T08:30:09;95922.66;;;3.81;74.66
47556;BME280;33291;46.222;26.460;2024-01-06T08:32:34;95912.34;;;3.81;74.32
47556;BME280;33291;46.222;26.460;2024-01-06T08:35:00;95910.28;;;3.86;75.12
47556;BME280;33291;46.222;26.460;2024-01-06T08:37:26;95913.31;;;3.91;74.66
47556;BME280;33291;46.222;26.460;2024-01-06T08:39:51;95916.38;;;3.96;74.99
47556;BME280;33291;46.222;26.460;2024-01-06T08:42:17;95905.84;;;3.99;74.77
47556;BME280;33291;46.222;26.460;2024-01-06T08:44:42;95902.97;;;4.04;74.79
47556;BME280;33291;46.222;26.460;2024-01-06T08:47:09;95906.13;;;4.07;74.60
47556;BME280;33291;46.222;26.460;2024-01-06T08:49:35;95897.00;;;4.15;74.31
47556;BME280;33291;46.222;26.460;2024-01-06T08:52:00;95892.31;;;4.20;73.74
47556;BME280;33291;46.222;26.460;2024-01-06T08:54:26;95876.84;;;4.20;73.29
47556;BME280;33291;46.222;26.460;2024-01-06T08:56:51;95882.00;;;4.31;73.23
47556;BME280;33291;46.222;26.460;2024-01-06T08:59:17;95878.88;;;4.39;73.10
47556;BME280;33291;46.222;26.460;2024-01-06T09:01:43;95876.88;;;4.42;73.68
47556;BME280;33291;46.222;26.460;2024-01-06T09:04:08;95871.25;;;4.49;74.06
47556;BME280;33291;46.222;26.460;2024-01-06T09:06:36;95868.44;;;4.52;73.60
47556;BME280;33291;46.222;26.460;2024-01-06T09:09:02;95864.69;;;4.56;72.25
47556;BME280;33291;46.222;26.460;2024-01-06T09:11:27;95862.09;;;4.67;72.37
47556;BME280;33291;46.222;26.460;2024-01-06T09:13:53;95861.63;;;4.73;71.95
47556;BME280;33291;46.222;26.460;2024-01-06T09:16:19;95862.94;;;4.79;72.45
47556;BME280;33291;46.222;26.460;2024-01-06T09:18:45;95864.91;;;4.87;72.70
47556;BME280;33291;46.222;26.460;2024-01-06T09:21:10;95861.41;;;4.88;72.50
47556;BME280;33291;46.222;26.460;2024-01-06T09:23:36;95855.75;;;4.94;72.45
47556;BME280;33291;46.222;26.460;2024-01-06T09:26:02;95845.63;;;5.02;72.20
47556;BME280;33291;46.222;26.460;2024-01-06T09:28:28;95836.03;;;5.04;71.67
47556;BME280;33291;46.222;26.460;2024-01-06T09:30:54;95796.16;;;4.86;71.40
47556;BME280;33291;46.222;26.460;2024-01-06T09:33:22;95836.91;;;5.26;71.18
47556;BME280;33291;46.222;26.460;2024-01-06T09:35:48;95831.00;;;5.35;70.55
47556;BME280;33291;46.222;26.460;2024-01-06T09:38:13;95835.56;;;5.43;70.13
47556;BME280;33291;46.222;26.460;2024-01-06T09:40:44;95829.09;;;5.48;70.30
47556;BME280;33291;46.222;26.460;2024-01-06T09:43:10;95830.78;;;5.59;69.90
47556;BME280;33291;46.222;26.460;2024-01-06T09:45:37;95818.69;;;5.60;69.35
47556;BME280;33291;46.222;26.460;2024-01-06T09:48:22;95805.41;;;5.64;68.79
47556;BME280;33291;46.222;26.460;2024-01-06T09:50:51;95814.03;;;5.75;68.65
47556;BME280;33291;46.222;26.460;2024-01-06T09:53:19;95814.69;;;5.88;68.53
47556;BME280;33291;46.222;26.460;2024-01-06T09:55:46;95814.97;;;5.95;68.27
47556;BME280;33291;46.222;26.460;2024-01-06T09:58:17;95808.25;;;6.03;67.41
47556;BME280;33291;46.222;26.460;2024-01-06T10:00:42;95807.22;;;6.16;66.64
47556;BME280;33291;46.222;26.460;2024-01-06T10:03:08;95801.03;;;6.28;66.09
47556;BME280;33291;46.222;26.460;2024-01-06T10:05:34;95806.00;;;6.41;64.88
47556;BME280;33291;46.222;26.460;2024-01-06T10:07:59;95796.50;;;6.51;63.43
47556;BME280;33291;46.222;26.460;2024-01-06T10:10:25;95780.88;;;6.63;62.51
47556;BME280;33291;46.222;26.460;2024-01-06T10:12:53;95776.56;;;6.73;62.06
47556;BME280;33291;46.222;26.460;2024-01-06T10:15:19;95767.41;;;6.79;61.04
47556;BME280;33291;46.222;26.460;2024-01-06T10:17:45;95763.38;;;6.96;60.78
47556;BME280;33291;46.222;26.460;2024-01-06T10:20:12;95761.75;;;7.14;59.12
47556;BME280;33291;46.222;26.460;2024-01-06T10:22:41;95760.78;;;7.35;57.72
47556;BME280;33291;46.222;26.460;2024-01-06T10:25:08;95759.41;;;7.60;57.14
47556;BME280;33291;46.222;26.460;2024-01-06T10:27:35;95736.59;;;7.83;55.98
47556;BME280;33291;46.222;26.460;2024-01-06T10:30:01;95749.06;;;8.17;54.75
47556;BME280;33291;46.222;26.460;2024-01-06T10:32:31;95741.44;;;8.43;53.47
47556;BME280;33291;46.222;26.460;2024-01-06T10:34:57;95726.72;;;8.62;52.96
47556;BME280;33291;46.222;26.460;2024-01-06T10:37:23;95732.44;;;8.93;52.49
47556;BME280;33291;46.222;26.460;2024-01-06T10:40:08;95727.53;;;9.08;52.32
47556;BME280;33291;46.222;26.460;2024-01-06T10:42:34;95715.72;;;9.14;51.05
47556;BME280;33291;46.222;26.460;2024-01-06T10:45:01;95712.59;;;9.28;47.62
47556;BME280;33291;46.222;26.460;2024-01-06T10:47:30;95709.09;;;9.37;48.77
47556;BME280;33291;46.222;26.460;2024-01-06T10:49:59;95717.63;;;9.48;48.02
47556;BME280;33291;46.222;26.460;2024-01-06T10:52:27;95709.06;;;9.55;47.55
47556;BME280;33291;46.222;26.460;2024-01-06T10:54:54;95699.59;;;9.72;47.07
47556;BME280;33291;46.222;26.460;2024-01-06T10:57:22;95694.19;;;9.92;46.13
47556;BME280;33291;46.222;26.460;2024-01-06T10:59:52;95703.13;;;10.24;45.02
47556;BME280;33291;46.222;26.460;2024-01-06T11:02:18;95687.44;;;10.42;44.13
47556;BME280;33291;46.222;26.460;2024-01-06T11:04:48;95688.25;;;10.51;43.16
47556;BME280;33291;46.222;26.460;2024-01-06T11:07:17;95680.13;;;10.45;42.67
47556;BME280;33291;46.222;26.460;2024-01-06T11:09:58;95674.91;;;10.37;43.21
47556;BME280;33291;46.222;26.460;2024-01-06T11:12:28;95674.81;;;10.29;43.61
47556;BME280;33291;46.222;26.460;2024-01-06T11:14:54;95672.53;;;10.18;44.14
47556;BME280;33291;46.222;26.460;2024-01-06T11:17:49;95673.63;;;10.15;44.46
47556;BME280;33291;46.222;26.460;2024-01-06T11:20:24;95661.78;;;10.21;44.23
47556;BME280;33291;46.222;26.460;2024-01-06T11:22:52;95670.03;;;10.42;43.02
47556;BME280;33291;46.222;26.460;2024-01-06T11:25:21;95665.19;;;10.64;42.49
47556;BME280;33291;46.222;26.460;2024-01-06T11:27:48;95662.13;;;10.77;40.75
47556;BME280;33291;46.222;26.460;2024-01-06T11:30:25;95656.44;;;10.90;39.85
47556;BME280;33291;46.222;26.460;2024-01-06T11:32:57;95657.75;;;10.94;40.13
47556;BME280;33291;46.222;26.460;2024-01-06T11:35:27;95664.94;;;10.92;40.44
47556;BME280;33291;46.222;26.460;2024-01-06T11:37:57;95659.53;;;10.85;40.46
47556;BME280;33291;46.222;26.460;2024-01-06T11:40:24;95654.97;;;10.79;41.11
47556;BME280;33291;46.222;26.460;2024-01-06T11:43:01;95657.06;;;10.67;41.54
47556;BME280;33291;46.222;26.460;2024-01-06T11:45:28;95642.88;;;10.53;41.75
47556;BME280;33291;46.222;26.460;2024-01-06T11:47:56;95628.38;;;10.42;41.91
47556;BME280;33291;46.222;26.460;2024-01-06T11:50:24;95640.44;;;10.43;42.33
47556;BME280;33291;46.222;26.460;2024-01-06T11:52:51;95638.63;;;10.36;42.62
47556;BME280;33291;46.222;26.460;2024-01-06T11:55:20;95634.81;;;10.30;42.58
47556;BME280;33291;46.222;26.460;2024-01-06T11:57:46;95639.06;;;10.31;42.63
47556;BME280;33291;46.222;26.460;2024-01-06T12:00:13;95641.16;;;10.27;42.78
47556;BME280;33291;46.222;26.460;2024-01-06T12:02:42;95642.94;;;10.27;42.61
47556;BME280;33291;46.222;26.460;2024-01-06T12:05:17;95645.88;;;10.24;42.99
47556;BME280;33291;46.222;26.460;2024-01-06T12:07:53;95639.84;;;10.23;43.17
47556;BME280;33291;46.222;26.460;2024-01-06T12:10:23;95644.91;;;10.25;43.54
47556;BME280;33291;46.222;26.460;2024-01-06T12:13:06;95634.78;;;10.22;44.51
47556;BME280;33291;46.222;26.460;2024-01-06T12:15:34;95635.78;;;10.21;44.42
47556;BME280;33291;46.222;26.460;2024-01-06T12:18:02;95623.38;;;10.14;45.04
47556;BME280;33291;46.222;26.460;2024-01-06T12:20:28;95630.88;;;10.18;45.45
47556;BME280;33291;46.222;26.460;2024-01-06T12:22:55;95620.09;;;10.12;45.81
47556;BME280;33291;46.222;26.460;2024-01-06T12:25:22;95633.31;;;10.19;46.13
47556;BME280;33291;46.222;26.460;2024-01-06T12:27:48;95634.13;;;10.20;46.17
47556;BME280;33291;46.222;26.460;2024-01-06T12:30:18;95632.16;;;10.22;46.13
47556;BME280;33291;46.222;26.460;2024-01-06T12:32:48;95623.44;;;10.31;45.92
47556;BME280;33291;46.222;26.460;2024-01-06T12:35:14;95626.56;;;10.35;45.79
47556;BME280;33291;46.222;26.460;2024-01-06T12:37:41;95617.78;;;10.36;45.77
47556;BME280;33291;46.222;26.460;2024-01-06T12:40:12;95633.44;;;10.52;45.19
47556;BME280;33291;46.222;26.460;2024-01-06T12:42:38;95636.22;;;10.59;45.21
47556;BME280;33291;46.222;26.460;2024-01-06T12:45:05;95619.78;;;10.58;45.46
47556;BME280;33291;46.222;26.460;2024-01-06T12:47:32;95618.16;;;10.57;45.67
47556;BME280;33291;46.222;26.460;2024-01-06T12:49:57;95634.94;;;10.63;45.81
47556;BME280;33291;46.222;26.460;2024-01-06T12:52:23;95634.94;;;10.63;46.21
47556;BME280;33291;46.222;26.460;2024-01-06T12:54:49;95635.25;;;10.60;46.63